createdAt,value
2022-12-24T00:01:06.705Z,12.10
2022-12-24T00:03:34.553Z,11.90
2022-12-24T00:06:10.362Z,13.73
2022-12-24T00:08:37.396Z,12.61
2022-12-24T00:11:04.594Z,13.57
2022-12-24T00:13:31.611Z,12.47
2022-12-24T00:15:59.072Z,12.43
2022-12-24T00:18:26.819Z,14.19
2022-12-24T00:20:54.333Z,12.77
2022-12-24T00:23:21.695Z,13.74
2022-12-24T00:25:48.801Z,13.70
2022-12-24T00:28:16.952Z,14.03
2022-12-24T00:30:44.141Z,13.85
2022-12-24T00:33:11.312Z,12.56
2022-12-24T00:35:40.549Z,12.36
2022-12-24T00:38:08.741Z,12.99
2022-12-24T00:40:35.922Z,13.09
2022-12-24T00:43:03.305Z,13.43
2022-12-24T00:45:30.471Z,13.24
2022-12-24T00:47:57.501Z,12.52
2022-12-24T00:50:24.684Z,14.58
2022-12-24T00:52:51.699Z,13.14
2022-12-24T00:55:18.712Z,12.50
2022-12-24T00:57:45.776Z,13.30
2022-12-24T01:00:13.311Z,12.98
2022-12-24T01:02:40.457Z,14.19
2022-12-24T01:05:10.404Z,14.87
2022-12-24T01:07:40.508Z,13.81
2022-12-24T01:10:09.564Z,14.93
2022-12-24T01:12:36.840Z,15.37
2022-12-24T01:15:05.178Z,15.58
2022-12-24T01:17:33.701Z,15.52
2022-12-24T01:20:01.157Z,15.13
2022-12-24T01:22:28.218Z,15.76
2022-12-24T01:24:55.277Z,14.90
2022-12-24T01:27:22.467Z,14.21
2022-12-24T01:29:49.595Z,16.32
2022-12-24T01:32:16.943Z,16.09
2022-12-24T01:34:44.214Z,15.13
2022-12-24T01:37:11.361Z,15.40
2022-12-24T01:39:38.518Z,13.94
2022-12-24T01:42:50.530Z,14.55
2022-12-24T01:45:44.774Z,13.74
2022-12-24T01:48:42.843Z,13.50
2022-12-24T01:51:28.463Z,13.33
2022-12-24T01:54:05.437Z,12.82
2022-12-24T01:56:35.419Z,14.41
2022-12-24T01:59:10.500Z,13.26
2022-12-24T02:01:38.794Z,12.42
2022-12-24T02:04:28.806Z,12.16
2022-12-24T02:06:55.892Z,12.77
2022-12-24T02:09:23.261Z,13.63
2022-12-24T02:11:50.433Z,12.72
2022-12-24T02:14:17.979Z,13.14
2022-12-24T02:17:06.322Z,13.07
2022-12-24T02:20:04.427Z,13.28
2022-12-24T02:22:47.584Z,12.35
2022-12-24T02:25:32.906Z,12.97
2022-12-24T02:28:30.963Z,12.24
2022-12-24T02:31:05.688Z,13.12
2022-12-24T02:33:48.394Z,13.54
2022-12-24T02:36:29.274Z,13.90
2022-12-24T02:39:06.079Z,14.61
2022-12-24T02:42:08.609Z,13.51
2022-12-24T02:44:52.674Z,14.44
2022-12-24T02:47:24.600Z,15.41
2022-12-24T02:49:51.668Z,16.90
2022-12-24T02:52:32.638Z,15.93
2022-12-24T02:55:04.422Z,14.93
2022-12-24T02:58:00.350Z,15.16
2022-12-24T03:00:52.714Z,15.02
2022-12-24T03:03:22.716Z,14.01
2022-12-24T03:06:09.272Z,15.01
2022-12-24T03:09:05.673Z,14.71
2022-12-24T03:11:38.612Z,16.31
2022-12-24T03:14:06.050Z,16.63
2022-12-24T03:16:33.530Z,15.22
2022-12-24T03:19:01.125Z,14.66
2022-12-24T03:21:34.649Z,14.43
2022-12-24T03:24:02.543Z,14.39
2022-12-24T03:26:33.782Z,14.67
2022-12-24T03:29:06.575Z,13.92
2022-12-24T03:32:00.831Z,14.40
2022-12-24T03:34:27.972Z,13.85
2022-12-24T03:36:55.568Z,14.02
2022-12-24T03:39:23.083Z,14.53
2022-12-24T03:41:50.131Z,14.44
2022-12-24T03:44:17.120Z,14.27
2022-12-24T03:46:44.175Z,13.75
2022-12-24T03:49:11.213Z,14.24
2022-12-24T03:51:38.245Z,13.40
2022-12-24T03:54:05.316Z,13.56
2022-12-24T03:56:32.399Z,14.64
2022-12-24T03:58:59.450Z,15.38
2022-12-24T04:01:26.530Z,14.40
2022-12-24T04:03:53.638Z,15.02
2022-12-24T04:06:20.657Z,13.36
2022-12-24T04:08:47.724Z,12.98
2022-12-24T04:11:16.956Z,13.15
2022-12-24T04:13:44.244Z,11.80
2022-12-24T04:16:15.336Z,12.50
2022-12-24T04:18:43.088Z,12.19
2022-12-24T04:21:11.608Z,12.67
2022-12-24T04:23:41.519Z,13.24
2022-12-24T04:26:11.764Z,14.36
2022-12-24T04:28:40.339Z,12.79
2022-12-24T04:31:17.978Z,12.73
2022-12-24T04:33:46.112Z,10.47
2022-12-24T04:36:17.396Z,10.31
2022-12-24T04:38:45.749Z,10.80
2022-12-24T04:41:24.203Z,10.53
2022-12-24T04:43:55.552Z,8.87
2022-12-24T04:46:25.918Z,8.62
2022-12-24T04:48:54.312Z,8.98
2022-12-24T04:51:21.983Z,9.28
2022-12-24T04:53:49.548Z,9.52
2022-12-24T04:56:22.749Z,10.20
2022-12-24T04:58:50.271Z,10.39
2022-12-24T05:01:21.320Z,9.91
2022-12-24T05:03:48.470Z,9.11
2022-12-24T05:06:19.370Z,9.45
2022-12-24T05:08:46.779Z,8.87
2022-12-24T05:11:15.673Z,8.67
2022-12-24T05:13:47.392Z,9.89
2022-12-24T05:16:17.049Z,10.24
2022-12-24T05:18:44.254Z,10.88
2022-12-24T05:21:15.160Z,10.48
2022-12-24T05:24:01.825Z,10.40
2022-12-24T05:26:37.261Z,9.59
2022-12-24T05:29:05.671Z,10.68
2022-12-24T05:31:33.581Z,10.19
2022-12-24T05:34:01.500Z,10.04
2022-12-24T05:36:29.269Z,9.70
2022-12-24T05:38:56.265Z,10.03
2022-12-24T05:41:23.685Z,10.30
2022-12-24T05:43:51.125Z,10.51
2022-12-24T05:46:21.482Z,11.42
2022-12-24T05:48:50.182Z,11.48
2022-12-24T05:51:19.954Z,10.24
2022-12-24T05:53:47.614Z,10.16
2022-12-24T05:56:18.383Z,10.24
2022-12-24T05:58:46.459Z,10.02
2022-12-24T06:01:14.627Z,9.97
2022-12-24T06:03:41.922Z,10.49
2022-12-24T06:06:12.766Z,10.27
2022-12-24T06:08:41.269Z,9.34
2022-12-24T06:11:12.179Z,10.47
2022-12-24T06:13:41.276Z,10.20
2022-12-24T06:16:12.634Z,9.56
2022-12-24T06:18:39.772Z,9.97
2022-12-24T06:21:07.164Z,10.37
2022-12-24T06:23:37.008Z,10.92
2022-12-24T06:26:06.437Z,10.35
2022-12-24T06:28:36.404Z,10.39
2022-12-24T06:31:06.075Z,11.11
2022-12-24T06:33:34.902Z,10.53
2022-12-24T06:36:02.377Z,10.46
2022-12-24T06:38:32.492Z,10.58
2022-12-24T06:40:59.711Z,10.92
2022-12-24T06:43:26.749Z,11.23
2022-12-24T06:45:53.757Z,10.45
2022-12-24T06:48:20.816Z,10.92
2022-12-24T06:50:48.300Z,9.49
2022-12-24T06:53:15.309Z,10.17
2022-12-24T06:55:42.331Z,10.18
2022-12-24T06:58:09.433Z,9.74
2022-12-24T07:00:36.624Z,10.29
2022-12-24T07:03:03.627Z,11.11
2022-12-24T07:05:30.816Z,10.58
2022-12-24T07:07:57.822Z,9.45
2022-12-24T07:10:24.833Z,10.28
2022-12-24T07:12:51.835Z,9.63
2022-12-24T07:15:18.834Z,10.79
2022-12-24T07:17:45.934Z,12.04
2022-12-24T07:20:15.048Z,10.91
2022-12-24T07:22:42.827Z,10.71
2022-12-24T07:25:11.026Z,11.02
2022-12-24T07:27:38.857Z,11.15
2022-12-24T07:30:06.739Z,10.45
2022-12-24T07:32:33.996Z,9.94
2022-12-24T07:35:01.037Z,9.60
2022-12-24T07:37:28.114Z,10.60
2022-12-24T07:39:55.124Z,11.65
2022-12-24T07:42:22.191Z,12.49
2022-12-24T07:44:49.390Z,12.15
2022-12-24T07:47:16.497Z,12.16
2022-12-24T07:49:43.512Z,11.98
2022-12-24T07:52:10.522Z,11.30
2022-12-24T07:54:37.575Z,11.75
2022-12-24T07:57:04.622Z,10.70
2022-12-24T07:59:31.612Z,10.26
2022-12-24T08:01:58.813Z,10.52
2022-12-24T08:04:25.976Z,11.36
2022-12-24T08:06:53.003Z,10.95
2022-12-24T08:09:20.155Z,11.08
2022-12-24T08:11:52.026Z,15.38
2022-12-24T08:14:19.820Z,11.44
2022-12-24T08:16:47.084Z,10.06
2022-12-24T08:19:14.218Z,9.95
2022-12-24T08:21:41.401Z,11.22
2022-12-24T08:24:08.584Z,12.11
2022-12-24T08:26:35.719Z,12.23
2022-12-24T08:29:04.121Z,11.26
2022-12-24T08:31:36.323Z,13.07
2022-12-24T08:34:07.639Z,12.78
2022-12-24T08:36:35.390Z,13.31
2022-12-24T08:39:11.001Z,15.38
2022-12-24T08:41:38.199Z,10.51
2022-12-24T08:44:05.293Z,11.63
2022-12-24T08:46:32.369Z,11.57
2022-12-24T08:48:59.454Z,11.56
2022-12-24T08:51:26.467Z,11.44
2022-12-24T08:53:53.500Z,14.42
2022-12-24T08:56:20.623Z,12.47
2022-12-24T08:58:48.759Z,11.03
2022-12-24T09:01:18.828Z,11.10
2022-12-24T09:03:46.443Z,11.47
2022-12-24T09:06:14.198Z,12.47
2022-12-24T09:08:41.234Z,13.55
2022-12-24T09:11:14.808Z,12.34
2022-12-24T09:13:44.476Z,11.03
2022-12-24T09:16:13.038Z,11.25
2022-12-24T09:18:40.173Z,13.02
2022-12-24T09:21:17.484Z,10.76
2022-12-24T09:23:47.018Z,13.01
2022-12-24T09:26:18.928Z,11.53
2022-12-24T09:28:47.155Z,11.33
2022-12-24T09:31:15.184Z,11.01
2022-12-24T09:33:45.433Z,10.28
2022-12-24T09:36:12.979Z,17.58
2022-12-24T09:38:40.354Z,14.42
2022-12-24T09:41:13.377Z,10.68
2022-12-24T09:43:47.937Z,10.54
2022-12-24T09:46:35.809Z,13.42
2022-12-24T09:49:10.590Z,12.12
2022-12-24T09:51:55.530Z,11.77
2022-12-24T09:54:30.387Z,14.17
2022-12-24T09:57:06.303Z,12.43
2022-12-24T09:59:46.306Z,13.41
2022-12-24T10:02:17.311Z,13.79
2022-12-24T10:04:46.995Z,14.09
2022-12-24T10:07:40.937Z,12.49
2022-12-24T10:10:44.292Z,12.56
2022-12-24T10:13:26.677Z,13.04
2022-12-24T10:16:06.650Z,12.79
2022-12-24T10:18:51.754Z,14.33
2022-12-24T10:21:35.703Z,14.72
2022-12-24T10:24:29.747Z,13.49
2022-12-24T10:27:03.007Z,11.69
2022-12-24T10:29:39.348Z,12.58
2022-12-24T10:32:28.429Z,11.08
2022-12-24T10:35:02.167Z,12.55
2022-12-24T10:37:30.621Z,12.58
2022-12-24T10:40:00.000Z,11.87
2022-12-24T10:42:48.390Z,15.18
2022-12-24T10:45:22.642Z,14.20
2022-12-24T10:47:59.932Z,12.57
2022-12-24T10:50:36.845Z,12.62
2022-12-24T10:53:19.190Z,13.71
2022-12-24T10:55:48.264Z,12.33
2022-12-24T10:58:20.248Z,12.31
2022-12-24T11:00:52.703Z,13.52
2022-12-24T11:03:29.231Z,15.35
2022-12-24T11:06:08.263Z,13.45
2022-12-24T11:08:38.472Z,12.31
2022-12-24T11:11:09.195Z,15.46
2022-12-24T11:13:41.545Z,12.87
2022-12-24T11:16:35.463Z,12.29
2022-12-24T11:19:06.167Z,11.40
2022-12-24T11:21:40.804Z,13.75
2022-12-24T11:24:13.471Z,17.01
2022-12-24T11:26:42.845Z,26.65
2022-12-24T11:29:21.613Z,16.11
2022-12-24T11:31:50.163Z,12.64
2022-12-24T11:34:32.777Z,13.03
2022-12-24T11:37:21.232Z,13.44
2022-12-24T11:39:54.896Z,12.73
2022-12-24T11:42:40.677Z,12.59
2022-12-24T11:45:21.329Z,13.21
2022-12-24T11:47:48.334Z,12.51
2022-12-24T11:50:35.305Z,16.16
2022-12-24T11:53:16.812Z,11.64
2022-12-24T11:55:55.572Z,11.35
2022-12-24T11:58:44.564Z,11.22
2022-12-24T12:01:22.513Z,11.62
2022-12-24T12:03:57.465Z,10.70
2022-12-24T12:06:44.479Z,12.39
2022-12-24T12:09:37.623Z,21.26
2022-12-24T12:12:15.602Z,34.48
2022-12-24T12:14:57.226Z,19.01
2022-12-24T12:17:35.015Z,16.01
2022-12-24T12:20:05.292Z,13.58
2022-12-24T12:22:57.463Z,14.28
2022-12-24T12:25:43.945Z,15.38
2022-12-24T12:28:22.049Z,19.97
2022-12-24T12:31:16.353Z,17.77
2022-12-24T12:33:52.789Z,16.07
2022-12-24T12:36:36.121Z,18.34
2022-12-24T12:39:06.103Z,19.70
2022-12-24T12:41:50.607Z,15.96
2022-12-24T12:44:32.560Z,13.10
2022-12-24T12:47:23.982Z,15.75
2022-12-24T12:49:53.891Z,13.58
2022-12-24T12:52:29.588Z,11.78
2022-12-24T12:55:05.368Z,11.99
2022-12-24T12:57:37.349Z,11.88
2022-12-24T13:00:06.498Z,11.48
2022-12-24T13:03:10.781Z,11.22
2022-12-24T13:05:49.813Z,11.12
2022-12-24T13:08:50.944Z,11.73
2022-12-24T13:11:32.774Z,10.61
2022-12-24T13:14:21.212Z,10.62
2022-12-24T13:17:19.589Z,10.00
2022-12-24T13:20:11.917Z,10.54
2022-12-24T13:22:39.017Z,11.25
2022-12-24T13:25:06.641Z,12.48
2022-12-24T13:27:35.598Z,13.60
2022-12-24T13:30:09.628Z,14.95
2022-12-24T13:32:50.062Z,13.65
2022-12-24T13:35:19.785Z,12.96
2022-12-24T13:37:48.244Z,12.23
2022-12-24T13:40:15.722Z,12.56
2022-12-24T13:43:07.391Z,12.56
2022-12-24T13:45:43.175Z,15.01
2022-12-24T13:48:10.196Z,16.38
2022-12-24T13:50:46.010Z,14.81
2022-12-24T13:53:30.424Z,15.32
2022-12-24T13:56:12.824Z,18.43
2022-12-24T13:58:51.238Z,24.54
2022-12-24T14:01:34.879Z,14.94
2022-12-24T14:04:07.989Z,13.74
2022-12-24T14:06:40.821Z,14.02
2022-12-24T14:09:18.897Z,13.01
2022-12-24T14:12:01.131Z,14.80
2022-12-24T14:14:41.419Z,16.19
2022-12-24T14:17:30.794Z,14.60
2022-12-24T14:20:00.643Z,14.35
2022-12-24T14:22:37.113Z,12.92
2022-12-24T14:25:16.307Z,11.56
2022-12-24T14:27:47.344Z,10.70
2022-12-24T14:30:21.413Z,10.71
2022-12-24T14:32:50.517Z,11.50
2022-12-24T14:35:21.517Z,11.23
2022-12-24T14:37:57.143Z,11.17
2022-12-24T14:40:34.022Z,12.01
2022-12-24T14:43:19.390Z,12.22
2022-12-24T14:46:08.903Z,13.44
2022-12-24T14:48:52.578Z,12.38
2022-12-24T14:51:54.928Z,11.77
2022-12-24T14:54:36.874Z,11.17
2022-12-24T14:57:24.664Z,9.88
2022-12-24T15:00:02.272Z,10.74
2022-12-24T15:02:51.753Z,10.02
2022-12-24T15:05:28.891Z,10.08
2022-12-24T15:08:11.076Z,10.36
2022-12-24T15:10:44.900Z,10.49
2022-12-24T15:13:23.899Z,9.96
2022-12-24T15:15:54.259Z,10.07
2022-12-24T15:18:29.579Z,10.12
2022-12-24T15:21:04.375Z,9.94
2022-12-24T15:23:35.314Z,10.57
2022-12-24T15:26:20.547Z,10.76
2022-12-24T15:28:47.456Z,12.48
2022-12-24T15:31:18.194Z,12.00
2022-12-24T15:33:46.950Z,14.50
2022-12-24T15:36:16.263Z,14.86
2022-12-24T15:38:47.255Z,13.47
2022-12-24T15:41:25.358Z,10.30
2022-12-24T15:43:54.643Z,10.77
2022-12-24T15:46:26.042Z,10.41
2022-12-24T15:48:56.317Z,10.60
2022-12-24T15:51:28.747Z,10.43
2022-12-24T15:54:06.079Z,10.89
2022-12-24T15:56:36.904Z,13.22
2022-12-24T15:59:15.946Z,12.16
2022-12-24T16:01:44.161Z,10.04
2022-12-24T16:04:27.489Z,10.18
2022-12-24T16:07:01.941Z,10.40
2022-12-24T16:09:43.822Z,10.74
2022-12-24T16:12:22.409Z,11.84
2022-12-24T16:14:58.947Z,13.13
2022-12-24T16:17:34.058Z,13.45
2022-12-24T16:20:07.352Z,12.48
2022-12-24T16:22:39.795Z,11.15
2022-12-24T16:25:23.099Z,12.24
2022-12-24T16:27:50.816Z,12.62
2022-12-24T16:30:19.746Z,12.65
2022-12-24T16:32:51.009Z,25.24
2022-12-24T16:35:28.379Z,23.34
2022-12-24T16:37:57.872Z,19.79
2022-12-24T16:40:27.940Z,25.28
2022-12-24T16:43:18.849Z,19.57
2022-12-24T16:45:50.872Z,29.30
2022-12-24T16:48:22.370Z,33.26
2022-12-24T16:50:51.985Z,24.16
2022-12-24T16:53:21.419Z,18.16
2022-12-24T16:55:51.119Z,16.13
2022-12-24T16:58:19.552Z,15.90
2022-12-24T17:00:46.931Z,13.84
2022-12-24T17:03:14.644Z,13.00
2022-12-24T17:05:43.500Z,13.25
2022-12-24T17:08:12.444Z,14.36
2022-12-24T17:10:40.417Z,25.10
2022-12-24T17:13:10.208Z,53.70
2022-12-24T17:15:41.927Z,51.68
2022-12-24T17:18:09.104Z,32.05
2022-12-24T17:20:36.223Z,20.98
2022-12-24T17:23:03.750Z,18.79
2022-12-24T17:25:30.584Z,19.04
2022-12-24T17:27:57.690Z,22.62
2022-12-24T17:30:24.795Z,27.13
2022-12-24T17:32:52.051Z,30.31
2022-12-24T17:35:19.082Z,28.61
2022-12-24T17:37:46.156Z,25.74
2022-12-24T17:40:13.308Z,24.33
2022-12-24T17:42:40.339Z,24.15
2022-12-24T17:45:07.669Z,25.66
2022-12-24T17:47:34.734Z,30.46
2022-12-24T17:50:01.781Z,29.70
2022-12-24T17:52:28.813Z,25.53
2022-12-24T17:54:55.747Z,21.56
2022-12-24T17:57:22.920Z,19.96
2022-12-24T17:59:49.857Z,19.17
2022-12-24T18:02:17.133Z,19.28
2022-12-24T18:04:44.290Z,21.67
2022-12-24T18:07:11.206Z,28.57
2022-12-24T18:09:38.161Z,25.40
2022-12-24T18:12:05.731Z,23.70
2022-12-24T18:14:32.859Z,24.63
2022-12-24T18:16:59.911Z,27.47
2022-12-24T18:19:27.024Z,25.32
2022-12-24T18:21:54.084Z,28.26
2022-12-24T18:24:21.003Z,34.26
2022-12-24T18:26:48.467Z,49.16
2022-12-24T18:29:17.450Z,44.66
2022-12-24T18:31:44.486Z,38.70
2022-12-24T18:34:13.767Z,57.07
2022-12-24T18:36:41.020Z,51.64
2022-12-24T18:39:08.072Z,30.56
2022-12-24T18:41:35.877Z,26.27
2022-12-24T18:44:03.141Z,24.15
2022-12-24T18:46:32.864Z,24.53
2022-12-24T18:49:01.249Z,22.79
2022-12-24T18:51:35.315Z,34.26
2022-12-24T18:54:06.277Z,37.95
2022-12-24T18:56:33.336Z,18.58
2022-12-24T18:59:02.627Z,19.95
2022-12-24T19:01:32.435Z,16.19
2022-12-24T19:04:00.140Z,21.19
2022-12-24T19:06:27.206Z,86.63
2022-12-24T19:09:00.230Z,84.84
2022-12-24T19:11:31.482Z,38.29
2022-12-24T19:13:58.941Z,43.79
2022-12-24T19:16:27.305Z,47.91
2022-12-24T19:18:54.411Z,34.72
2022-12-24T19:21:21.391Z,22.17
2022-12-24T19:23:48.920Z,20.61
2022-12-24T19:26:18.002Z,20.12
2022-12-24T19:28:45.979Z,20.65
2022-12-24T19:31:16.140Z,19.38
2022-12-24T19:33:46.749Z,19.16
2022-12-24T19:36:17.124Z,19.35
2022-12-24T19:38:44.587Z,19.35
2022-12-24T19:41:16.659Z,20.52
2022-12-24T19:43:47.032Z,26.07
2022-12-24T19:46:17.379Z,29.56
2022-12-24T19:48:51.551Z,26.85
2022-12-24T19:51:18.625Z,21.97
2022-12-24T19:53:47.577Z,18.24
2022-12-24T19:56:20.636Z,17.95
2022-12-24T19:58:48.761Z,16.09
2022-12-24T20:01:19.902Z,17.05
2022-12-24T20:03:48.090Z,16.76
2022-12-24T20:06:16.765Z,17.48
2022-12-24T20:08:44.260Z,17.23
2022-12-24T20:11:16.309Z,17.54
2022-12-24T20:13:43.932Z,17.91
2022-12-24T20:16:17.719Z,19.39
2022-12-24T20:18:44.879Z,18.64
2022-12-24T20:21:13.052Z,18.96
2022-12-24T20:23:40.837Z,21.19
2022-12-24T20:26:11.737Z,23.74
2022-12-24T20:28:39.580Z,26.60
2022-12-24T20:31:33.008Z,21.31
2022-12-24T20:34:02.227Z,20.62
2022-12-24T20:36:31.660Z,21.97
2022-12-24T20:38:59.179Z,22.70
2022-12-24T20:41:28.675Z,18.09
2022-12-24T20:43:58.550Z,18.96
2022-12-24T20:46:26.473Z,24.33
2022-12-24T20:48:55.407Z,26.29
2022-12-24T20:51:25.754Z,25.60
2022-12-24T20:53:55.553Z,23.28
2022-12-24T20:56:22.740Z,21.71
2022-12-24T20:58:50.160Z,23.11
2022-12-24T21:01:26.929Z,25.83
2022-12-24T21:03:55.803Z,26.52
2022-12-24T21:06:24.410Z,23.95
2022-12-24T21:08:53.501Z,23.12
2022-12-24T21:11:40.549Z,22.44
2022-12-24T21:14:07.734Z,21.46
2022-12-24T21:16:36.862Z,22.92
2022-12-24T21:19:05.250Z,26.31
2022-12-24T21:21:33.345Z,22.54
2022-12-24T21:24:00.551Z,22.83
2022-12-24T21:26:27.621Z,20.85
2022-12-24T21:28:54.631Z,17.49
2022-12-24T21:31:21.650Z,15.57
2022-12-24T21:33:48.747Z,14.73
2022-12-24T21:36:16.531Z,15.70
2022-12-24T21:38:43.378Z,18.37
2022-12-24T21:41:14.316Z,18.68
2022-12-24T21:43:42.485Z,18.29
2022-12-24T21:46:17.329Z,16.67
2022-12-24T21:49:03.924Z,15.93
2022-12-24T21:51:31.026Z,25.09
2022-12-24T21:54:16.777Z,29.45
2022-12-24T21:57:02.121Z,25.77
2022-12-24T21:59:29.028Z,15.73
2022-12-24T22:01:57.855Z,15.62
2022-12-24T22:04:25.425Z,17.06
2022-12-24T22:07:11.337Z,24.55
2022-12-24T22:09:57.778Z,19.75
2022-12-24T22:12:30.134Z,15.87
2022-12-24T22:14:57.244Z,15.58
2022-12-24T22:17:25.739Z,15.32
2022-12-24T22:19:56.292Z,14.94
2022-12-24T22:22:24.074Z,14.96
2022-12-24T22:24:51.245Z,15.17
2022-12-24T22:27:18.230Z,16.44
2022-12-24T22:29:45.208Z,17.30
2022-12-24T22:32:12.242Z,16.47
2022-12-24T22:34:39.258Z,16.44
2022-12-24T22:37:06.216Z,16.22
2022-12-24T22:39:33.264Z,15.80
2022-12-24T22:42:00.297Z,15.69
2022-12-24T22:44:27.360Z,14.10
2022-12-24T22:46:54.201Z,14.52
2022-12-24T22:49:21.056Z,15.48
2022-12-24T22:51:48.092Z,15.31
2022-12-24T22:54:15.850Z,17.55
2022-12-24T22:56:43.051Z,17.50
2022-12-24T22:59:13.442Z,16.73
2022-12-24T23:01:43.445Z,16.52
2022-12-24T23:04:11.670Z,16.00
2022-12-24T23:06:39.786Z,19.67
2022-12-24T23:09:09.143Z,24.65
2022-12-24T23:11:36.239Z,19.51
2022-12-24T23:14:21.688Z,17.78
2022-12-24T23:16:48.697Z,16.66
2022-12-24T23:19:16.219Z,17.03
2022-12-24T23:21:43.226Z,17.49
2022-12-24T23:24:11.169Z,30.44
2022-12-24T23:26:38.630Z,37.57
2022-12-24T23:29:06.503Z,33.63
2022-12-24T23:31:34.726Z,17.88
2022-12-24T23:34:02.133Z,15.19
2022-12-24T23:36:29.840Z,15.41
2022-12-24T23:38:57.517Z,16.43
2022-12-24T23:41:24.619Z,16.42
2022-12-24T23:43:51.548Z,16.26
2022-12-24T23:46:20.173Z,15.79
2022-12-24T23:48:48.082Z,15.35
2022-12-24T23:51:18.986Z,15.20
2022-12-24T23:53:46.044Z,15.56
2022-12-24T23:56:13.906Z,16.03
2022-12-24T23:58:42.808Z,16.43
